createdAt,value
2022-11-29T00:00:03.536Z,1012.55
2022-11-29T00:01:21.905Z,1012.56
2022-11-29T00:02:03.196Z,1012.52
2022-11-29T00:03:03.482Z,1012.56
2022-11-29T00:04:03.204Z,1012.49
2022-11-29T00:05:03.010Z,1012.51
2022-11-29T00:06:03.400Z,1012.49
2022-11-29T00:07:03.192Z,1012.55
2022-11-29T00:08:02.961Z,1012.48
2022-11-29T00:09:03.261Z,1012.50
2022-11-29T00:10:02.270Z,1012.52
2022-11-29T00:11:22.892Z,1012.55
2022-11-29T00:12:02.619Z,1012.52
2022-11-29T00:13:02.910Z,1012.58
2022-11-29T00:14:03.236Z,1012.54
2022-11-29T00:15:03.027Z,1012.58
2022-11-29T00:16:03.302Z,1012.59
2022-11-29T00:17:02.921Z,1012.59
2022-11-29T00:18:02.388Z,1012.58
2022-11-29T00:19:03.208Z,1012.59
2022-11-29T00:20:02.983Z,1012.60
2022-11-29T00:21:21.812Z,1012.62
2022-11-29T00:22:03.024Z,1012.64
2022-11-29T00:23:02.801Z,1012.66
2022-11-29T00:24:02.443Z,1012.66
2022-11-29T00:25:02.906Z,1012.68
2022-11-29T00:26:02.777Z,1012.67
2022-11-29T00:27:02.279Z,1012.68
2022-11-29T00:28:02.861Z,1012.73
2022-11-29T00:29:01.957Z,1012.64
2022-11-29T00:30:02.982Z,1012.67
2022-11-29T00:31:21.286Z,1012.68
2022-11-29T00:32:03.004Z,1012.65
2022-11-29T00:33:02.776Z,1012.64
2022-11-29T00:34:03.095Z,1012.65
2022-11-29T00:35:06.621Z,1012.66
2022-11-29T00:36:03.695Z,1012.65
2022-11-29T00:37:02.239Z,1012.65
2022-11-29T00:38:02.879Z,1012.64
2022-11-29T00:39:02.659Z,1012.66
2022-11-29T00:40:02.943Z,1012.63
2022-11-29T00:41:21.256Z,1012.68
2022-11-29T00:42:02.987Z,1012.65
2022-11-29T00:43:02.767Z,1012.63
2022-11-29T00:44:02.568Z,1012.65
2022-11-29T00:45:02.872Z,1012.66
2022-11-29T00:46:02.697Z,1012.62
2022-11-29T00:47:01.956Z,1012.60
2022-11-29T00:48:02.786Z,1012.65
2022-11-29T00:49:02.556Z,1012.64
2022-11-29T00:50:02.395Z,1012.70
2022-11-29T00:51:21.208Z,1012.66
2022-11-29T00:52:02.942Z,1012.66
2022-11-29T00:53:01.992Z,1012.71
2022-11-29T00:54:01.859Z,1012.70
2022-11-29T00:55:02.915Z,1012.67
2022-11-29T00:56:02.218Z,1012.69
2022-11-29T00:57:02.482Z,1012.71
2022-11-29T00:58:02.786Z,1012.68
2022-11-29T00:59:01.981Z,1012.69
2022-11-29T01:00:02.379Z,1012.69
2022-11-29T01:01:21.246Z,1012.71
2022-11-29T01:02:02.496Z,1012.66
2022-11-29T01:03:02.669Z,1012.69
2022-11-29T01:04:02.479Z,1012.69
2022-11-29T01:05:01.990Z,1012.66
2022-11-29T01:06:01.786Z,1012.66
2022-11-29T01:07:02.366Z,1012.71
2022-11-29T01:08:02.745Z,1012.66
2022-11-29T01:09:02.501Z,1012.70
2022-11-29T01:10:01.495Z,1012.69
2022-11-29T01:11:21.111Z,1012.72
2022-11-29T01:12:02.338Z,1012.71
2022-11-29T01:13:02.600Z,1012.73
2022-11-29T01:14:02.409Z,1012.71
2022-11-29T01:15:02.206Z,1012.74
2022-11-29T01:16:02.501Z,1012.74
2022-11-29T01:17:01.535Z,1012.72
2022-11-29T01:18:01.807Z,1012.75
2022-11-29T01:19:01.839Z,1012.79
2022-11-29T01:20:02.637Z,1012.79
2022-11-29T01:21:20.954Z,1012.79
2022-11-29T01:22:02.184Z,1012.78
2022-11-29T01:23:01.503Z,1012.84
2022-11-29T01:24:02.390Z,1012.82
2022-11-29T01:25:02.189Z,1012.82
2022-11-29T01:26:02.465Z,1012.81
2022-11-29T01:27:02.242Z,1012.83
2022-11-29T01:28:02.544Z,1012.84
2022-11-29T01:29:01.493Z,1012.84
2022-11-29T01:30:01.328Z,1012.84
2022-11-29T01:31:20.918Z,1012.84
2022-11-29T01:32:02.148Z,1012.81
2022-11-29T01:33:02.415Z,1012.85
2022-11-29T01:34:02.228Z,1012.83
2022-11-29T01:35:01.506Z,1012.83
2022-11-29T01:36:02.318Z,1012.85
2022-11-29T01:37:02.077Z,1012.86
2022-11-29T01:38:02.375Z,1012.87
2022-11-29T01:39:01.401Z,1012.87
2022-11-29T01:40:02.025Z,1012.92
2022-11-29T01:41:20.819Z,1012.87
2022-11-29T01:42:02.047Z,1012.93
2022-11-29T01:43:01.816Z,1012.92
2022-11-29T01:44:02.117Z,1012.98
2022-11-29T01:45:02.390Z,1012.95
2022-11-29T01:46:02.265Z,1012.97
2022-11-29T01:47:01.237Z,1012.98
2022-11-29T01:48:02.279Z,1012.95
2022-11-29T01:49:02.041Z,1012.95
2022-11-29T01:50:02.398Z,1013.00
2022-11-29T01:51:20.647Z,1012.99
2022-11-29T01:52:01.860Z,1013.06
2022-11-29T01:53:01.508Z,1013.09
2022-11-29T01:54:01.939Z,1013.05
2022-11-29T01:55:02.279Z,1013.10
2022-11-29T01:56:01.360Z,1013.11
2022-11-29T01:57:01.831Z,1013.10
2022-11-29T01:58:02.145Z,1013.12
2022-11-29T01:59:01.018Z,1013.12
2022-11-29T02:00:02.217Z,1013.14
2022-11-29T02:01:20.599Z,1013.14
2022-11-29T02:02:00.410Z,1013.15
2022-11-29T02:03:02.042Z,1013.15
2022-11-29T02:04:01.005Z,1013.12
2022-11-29T02:05:02.088Z,1013.17
2022-11-29T02:06:01.882Z,1013.16
2022-11-29T02:07:01.391Z,1013.20
2022-11-29T02:08:01.957Z,1013.19
2022-11-29T02:09:01.722Z,1013.29
2022-11-29T02:10:01.117Z,1013.29
2022-11-29T02:11:20.461Z,1013.23
2022-11-29T02:12:01.671Z,1013.32
2022-11-29T02:13:01.924Z,1013.29
2022-11-29T02:14:01.719Z,1013.32
2022-11-29T02:15:01.018Z,1013.30
2022-11-29T02:16:01.065Z,1013.31
2022-11-29T02:17:02.039Z,1013.32
2022-11-29T02:18:01.849Z,1013.32
2022-11-29T02:19:01.606Z,1013.30
2022-11-29T02:20:01.905Z,1013.33
2022-11-29T02:21:20.219Z,1013.31
2022-11-29T02:22:01.157Z,1013.28
2022-11-29T02:23:01.205Z,1013.29
2022-11-29T02:24:01.980Z,1013.28
2022-11-29T02:25:01.775Z,1013.32
2022-11-29T02:26:01.634Z,1013.29
2022-11-29T02:27:01.024Z,1013.29
2022-11-29T02:28:01.675Z,1013.29
2022-11-29T02:29:01.969Z,1013.30
2022-11-29T02:30:01.718Z,1013.31
2022-11-29T02:31:20.091Z,1013.28
2022-11-29T02:32:01.034Z,1013.33
2022-11-29T02:33:01.557Z,1013.31
2022-11-29T02:34:01.817Z,1013.32
2022-11-29T02:35:00.832Z,1013.32
2022-11-29T02:36:01.394Z,1013.33
2022-11-29T02:37:01.687Z,1013.35
2022-11-29T02:38:01.461Z,1013.33
2022-11-29T02:39:01.056Z,1013.30
2022-11-29T02:40:01.505Z,1013.30
2022-11-29T02:41:20.328Z,1013.26
2022-11-29T02:42:01.630Z,1013.29
2022-11-29T02:43:01.391Z,1013.27
2022-11-29T02:44:00.533Z,1013.29
2022-11-29T02:45:01.445Z,1013.27
2022-11-29T02:46:01.750Z,1013.32
2022-11-29T02:47:01.508Z,1013.33
2022-11-29T02:48:00.010Z,1013.33
2022-11-29T02:49:00.793Z,1013.30
2022-11-29T02:49:59.540Z,1013.33
2022-11-29T02:51:20.088Z,1013.31
2022-11-29T02:52:01.282Z,1013.35
2022-11-29T02:53:01.070Z,1013.33
2022-11-29T02:54:01.343Z,1013.35
2022-11-29T02:55:01.628Z,1013.34
2022-11-29T02:56:01.405Z,1013.36
2022-11-29T02:57:00.558Z,1013.36
2022-11-29T02:58:01.527Z,1013.38
2022-11-29T02:59:01.292Z,1013.43
2022-11-29T03:00:01.566Z,1013.44
2022-11-29T03:01:19.928Z,1013.43
2022-11-29T03:02:01.592Z,1013.50
2022-11-29T03:03:00.556Z,1013.52
2022-11-29T03:04:00.633Z,1013.45
2022-11-29T03:05:01.432Z,1013.46
2022-11-29T03:06:01.201Z,1013.43
2022-11-29T03:07:01.483Z,1013.48
2022-11-29T03:08:01.276Z,1013.45
2022-11-29T03:09:00.151Z,1013.48
2022-11-29T03:10:01.290Z,1013.51
2022-11-29T03:11:20.149Z,1013.47
2022-11-29T03:12:01.378Z,1013.46
2022-11-29T03:12:59.862Z,1013.48
2022-11-29T03:13:59.695Z,1013.52
2022-11-29T03:15:00.550Z,1013.56
2022-11-29T03:15:59.804Z,1013.50
2022-11-29T03:17:01.513Z,1013.55
2022-11-29T03:18:00.831Z,1013.54
2022-11-29T03:19:01.111Z,1013.61
2022-11-29T03:20:00.555Z,1013.64
2022-11-29T03:21:19.760Z,1013.64
2022-11-29T03:21:59.629Z,1013.65
2022-11-29T03:23:01.293Z,1013.65
2022-11-29T03:24:01.080Z,1013.68
2022-11-29T03:25:00.917Z,1013.70
2022-11-29T03:26:00.551Z,1013.69
2022-11-29T03:26:59.582Z,1013.70
2022-11-29T03:28:00.583Z,1013.72
2022-11-29T03:28:59.823Z,1013.71
2022-11-29T03:30:01.012Z,1013.70
2022-11-29T03:31:20.620Z,1013.73
2022-11-29T03:32:01.104Z,1013.71
2022-11-29T03:32:59.492Z,1013.70
2022-11-29T03:33:59.812Z,1013.78
2022-11-29T03:34:59.750Z,1013.78
2022-11-29T03:35:59.402Z,1013.75
2022-11-29T03:37:00.066Z,1013.81
2022-11-29T03:38:00.974Z,1013.74
2022-11-29T03:38:59.863Z,1013.78
2022-11-29T03:39:59.773Z,1013.78
2022-11-29T03:41:19.464Z,1013.79
2022-11-29T03:42:00.080Z,1013.82
2022-11-29T03:43:00.946Z,1013.82
2022-11-29T03:43:59.375Z,1013.81
2022-11-29T03:44:59.700Z,1013.84
2022-11-29T03:46:00.969Z,1013.83
2022-11-29T03:46:59.325Z,1013.77
2022-11-29T03:48:00.079Z,1013.81
2022-11-29T03:49:00.764Z,1013.85
2022-11-29T03:49:59.625Z,1013.80
2022-11-29T03:51:19.376Z,1013.84
2022-11-29T03:51:59.691Z,1013.82
2022-11-29T03:53:00.087Z,1013.81
2022-11-29T03:54:00.070Z,1013.79
2022-11-29T03:55:00.942Z,1013.82
2022-11-29T03:56:00.725Z,1013.87
2022-11-29T03:57:00.229Z,1013.87
2022-11-29T03:58:00.772Z,1013.89
2022-11-29T03:59:01.025Z,1013.92
2022-11-29T04:00:00.084Z,1013.92
2022-11-29T04:01:19.200Z,1013.89
2022-11-29T04:02:00.883Z,1013.89
2022-11-29T04:03:00.687Z,1013.90
2022-11-29T04:03:59.490Z,1013.93
2022-11-29T04:05:00.092Z,1013.91
2022-11-29T04:06:00.081Z,1013.94
2022-11-29T04:07:00.742Z,1013.93
2022-11-29T04:08:00.538Z,1013.87
2022-11-29T04:09:00.762Z,1013.90
2022-11-29T04:10:00.045Z,1013.93
2022-11-29T04:11:19.358Z,1013.93
2022-11-29T04:12:00.548Z,1013.90
2022-11-29T04:13:00.313Z,1013.94
2022-11-29T04:14:00.593Z,1013.96
2022-11-29T04:15:00.906Z,1013.95
2022-11-29T04:16:00.713Z,1013.94
2022-11-29T04:16:59.084Z,1014.02
2022-11-29T04:17:59.950Z,1013.98
2022-11-29T04:19:00.457Z,1014.00
2022-11-29T04:20:00.736Z,1014.01
2022-11-29T04:21:19.046Z,1014.02
2022-11-29T04:21:59.598Z,1014.01
2022-11-29T04:23:00.446Z,1013.98
2022-11-29T04:24:00.297Z,1013.99
2022-11-29T04:25:00.093Z,1014.01
2022-11-29T04:26:00.335Z,1013.98
2022-11-29T04:27:00.127Z,1013.98
2022-11-29T04:28:00.379Z,1014.01
2022-11-29T04:28:59.604Z,1013.99
2022-11-29T04:29:59.725Z,1014.03
2022-11-29T04:31:19.343Z,1013.99
2022-11-29T04:32:00.016Z,1014.02
2022-11-29T04:33:00.286Z,1014.05
2022-11-29T04:34:00.526Z,1014.08
2022-11-29T04:34:59.599Z,1014.11
2022-11-29T04:36:00.080Z,1014.12
2022-11-29T04:37:00.340Z,1014.11
2022-11-29T04:38:00.128Z,1014.17
2022-11-29T04:39:00.396Z,1014.15
2022-11-29T04:40:00.141Z,1014.18
2022-11-29T04:41:18.967Z,1014.15
2022-11-29T04:42:00.164Z,1014.14
2022-11-29T04:42:59.921Z,1014.15
2022-11-29T04:44:00.169Z,1014.15
2022-11-29T04:45:00.449Z,1014.13
2022-11-29T04:46:00.280Z,1014.14
2022-11-29T04:46:59.616Z,1014.14
2022-11-29T04:48:00.280Z,1014.12
2022-11-29T04:49:00.564Z,1014.15
2022-11-29T04:50:00.310Z,1014.16
2022-11-29T04:51:18.650Z,1014.21
2022-11-29T04:52:00.341Z,1014.17
2022-11-29T04:53:00.077Z,1014.23
2022-11-29T04:54:00.371Z,1014.25
2022-11-29T04:54:59.394Z,1014.21
2022-11-29T04:56:00.415Z,1014.23
2022-11-29T04:57:00.204Z,1014.28
2022-11-29T04:57:59.980Z,1014.29
2022-11-29T04:59:00.126Z,1014.27
2022-11-29T04:59:59.974Z,1014.29
2022-11-29T05:01:18.855Z,1014.32
2022-11-29T05:02:00.105Z,1014.31
2022-11-29T05:02:59.826Z,1014.30
2022-11-29T05:03:58.622Z,1014.29
2022-11-29T05:05:00.302Z,1014.32
2022-11-29T05:06:00.044Z,1014.36
2022-11-29T05:07:00.313Z,1014.31
2022-11-29T05:08:00.082Z,1014.37
2022-11-29T05:08:58.934Z,1014.37
2022-11-29T05:09:59.125Z,1014.41
2022-11-29T05:11:23.430Z,1014.41
2022-11-29T05:12:01.140Z,1014.39
2022-11-29T05:12:59.914Z,1014.39
2022-11-29T05:14:00.148Z,1014.41
2022-11-29T05:14:59.915Z,1014.41
2022-11-29T05:15:59.167Z,1014.46
2022-11-29T05:17:06.226Z,1014.41
2022-11-29T05:17:59.265Z,1014.43
2022-11-29T05:18:59.802Z,1014.45
2022-11-29T05:19:58.633Z,1014.48
2022-11-29T05:21:18.396Z,1014.50
2022-11-29T05:22:00.078Z,1014.46
2022-11-29T05:22:59.823Z,1014.47
2022-11-29T05:24:00.097Z,1014.46
2022-11-29T05:24:59.855Z,1014.50
2022-11-29T05:25:59.621Z,1014.48
2022-11-29T05:27:03.878Z,1014.43
2022-11-29T05:27:59.973Z,1014.46
2022-11-29T05:28:58.990Z,1014.48
2022-11-29T05:30:00.000Z,1014.49
2022-11-29T05:31:18.392Z,1014.49
2022-11-29T05:32:05.400Z,1014.52
2022-11-29T05:32:59.716Z,1014.54
2022-11-29T05:33:59.975Z,1014.56
2022-11-29T05:34:59.731Z,1014.57
2022-11-29T05:35:59.990Z,1014.56
2022-11-29T05:37:07.068Z,1014.57
2022-11-29T05:37:59.140Z,1014.65
2022-11-29T05:38:59.571Z,1014.62
2022-11-29T05:39:59.817Z,1014.65
2022-11-29T05:41:19.686Z,1014.67
2022-11-29T05:43:16.490Z,1014.74
2022-11-29T05:44:14.274Z,1014.75
2022-11-29T05:45:14.542Z,1014.75
2022-11-29T05:46:14.373Z,1014.79
2022-11-29T05:47:14.530Z,1014.78
2022-11-29T05:48:14.255Z,1014.80
2022-11-29T05:49:15.447Z,1014.79
2022-11-29T05:50:14.234Z,1014.80
2022-11-29T05:51:14.485Z,1014.78
2022-11-29T05:52:34.239Z,1014.84
2022-11-29T05:53:13.984Z,1014.88
2022-11-29T05:54:14.229Z,1014.84
2022-11-29T05:55:16.446Z,1014.90
2022-11-29T05:56:14.238Z,1014.91
2022-11-29T05:57:14.004Z,1014.90
2022-11-29T05:58:15.162Z,1014.94
2022-11-29T05:59:15.530Z,1014.95
2022-11-29T06:00:14.344Z,1014.95
2022-11-29T06:01:14.111Z,1014.93
2022-11-29T06:02:35.112Z,1014.96
2022-11-29T06:03:14.148Z,1015.03
2022-11-29T06:04:15.110Z,1015.05
2022-11-29T06:05:14.090Z,1015.08
2022-11-29T06:06:14.336Z,1015.04
2022-11-29T06:07:14.105Z,1015.09
2022-11-29T06:08:13.839Z,1015.14
2022-11-29T06:09:14.093Z,1015.14
2022-11-29T06:10:13.853Z,1015.18
2022-11-29T06:11:14.104Z,1015.13
2022-11-29T06:12:34.683Z,1015.17
2022-11-29T06:13:14.114Z,1015.26
2022-11-29T06:14:13.853Z,1015.30
2022-11-29T06:15:14.095Z,1015.27
2022-11-29T06:16:13.840Z,1015.30
2022-11-29T06:17:14.094Z,1015.36
2022-11-29T06:18:13.816Z,1015.37
2022-11-29T06:19:14.072Z,1015.42
2022-11-29T06:20:13.805Z,1015.44
2022-11-29T06:21:14.093Z,1015.48
2022-11-29T06:22:35.295Z,1015.50
2022-11-29T06:23:14.090Z,1015.54
2022-11-29T06:24:13.829Z,1015.49
2022-11-29T06:25:14.088Z,1015.52
2022-11-29T06:26:13.833Z,1015.52
2022-11-29T06:27:14.085Z,1015.53
2022-11-29T06:28:13.834Z,1015.55
2022-11-29T06:29:14.439Z,1015.54
2022-11-29T06:30:14.505Z,1015.55
2022-11-29T06:31:14.130Z,1015.56
2022-11-29T06:32:35.379Z,1015.57
2022-11-29T06:33:13.681Z,1015.58
2022-11-29T06:34:13.924Z,1015.58
2022-11-29T06:35:13.673Z,1015.59
2022-11-29T06:36:14.854Z,1015.57
2022-11-29T06:37:13.668Z,1015.62
2022-11-29T06:38:13.900Z,1015.61
2022-11-29T06:39:14.367Z,1015.62
2022-11-29T06:40:13.898Z,1015.64
2022-11-29T06:41:13.657Z,1015.67
2022-11-29T06:42:35.438Z,1015.64
2022-11-29T06:43:13.745Z,1015.65
2022-11-29T06:44:13.490Z,1015.68
2022-11-29T06:45:15.191Z,1015.67
2022-11-29T06:46:13.546Z,1015.68
2022-11-29T06:47:13.747Z,1015.63
2022-11-29T06:48:13.492Z,1015.72
2022-11-29T06:49:13.752Z,1015.70
2022-11-29T06:50:13.482Z,1015.66
2022-11-29T06:51:15.188Z,1015.69
2022-11-29T06:52:34.219Z,1015.70
2022-11-29T06:53:13.837Z,1015.69
2022-11-29T06:54:14.523Z,1015.72
2022-11-29T06:55:13.839Z,1015.78
2022-11-29T06:56:13.577Z,1015.78
2022-11-29T06:57:13.839Z,1015.78
2022-11-29T06:58:15.020Z,1015.81
2022-11-29T06:59:13.341Z,1015.81
2022-11-29T07:00:13.601Z,1015.86
2022-11-29T07:01:13.443Z,1015.85
2022-11-29T07:02:33.736Z,1015.87
2022-11-29T07:03:14.873Z,1015.85
2022-11-29T07:04:13.705Z,1015.92
2022-11-29T07:05:13.459Z,1015.88
2022-11-29T07:06:15.122Z,1015.96
2022-11-29T07:07:13.453Z,1015.97
2022-11-29T07:08:13.686Z,1015.99
2022-11-29T07:09:14.213Z,1015.94
2022-11-29T07:10:15.008Z,1015.94
2022-11-29T07:11:13.484Z,1015.93
2022-11-29T07:12:35.183Z,1015.89
2022-11-29T07:13:13.520Z,1015.91
2022-11-29T07:14:13.231Z,1015.93
2022-11-29T07:15:14.214Z,1015.94
2022-11-29T07:16:13.258Z,1015.98
2022-11-29T07:17:13.498Z,1015.99
2022-11-29T07:18:13.236Z,1016.01
2022-11-29T07:19:13.475Z,1016.04
2022-11-29T07:20:13.207Z,1016.07
2022-11-29T07:21:14.215Z,1016.08
2022-11-29T07:22:34.775Z,1016.13
2022-11-29T07:23:13.555Z,1016.12
2022-11-29T07:24:13.369Z,1016.15
2022-11-29T07:25:13.076Z,1016.12
2022-11-29T07:26:13.477Z,1016.05
2022-11-29T07:27:13.278Z,1016.09
2022-11-29T07:28:13.008Z,1016.11
2022-11-29T07:29:13.268Z,1016.14
2022-11-29T07:30:13.033Z,1016.09
2022-11-29T07:31:13.331Z,1016.11
2022-11-29T07:32:33.742Z,1016.17
2022-11-29T07:33:13.298Z,1016.17
2022-11-29T07:34:13.058Z,1016.21
2022-11-29T07:35:13.288Z,1016.23
2022-11-29T07:36:13.060Z,1016.26
2022-11-29T07:37:13.281Z,1016.27
2022-11-29T07:38:13.035Z,1016.29
2022-11-29T07:39:13.268Z,1016.26
2022-11-29T07:40:13.034Z,1016.28
2022-11-29T07:41:13.297Z,1016.27
2022-11-29T07:42:34.530Z,1016.29
2022-11-29T07:43:13.336Z,1016.30
2022-11-29T07:44:13.061Z,1016.32
2022-11-29T07:45:13.328Z,1016.33
2022-11-29T07:46:13.067Z,1016.35
2022-11-29T07:47:14.830Z,1016.37
2022-11-29T07:48:14.608Z,1016.39
2022-11-29T07:49:14.463Z,1016.38
2022-11-29T07:50:14.245Z,1016.40
2022-11-29T07:51:14.628Z,1016.40
2022-11-29T07:52:32.934Z,1016.37
2022-11-29T07:53:14.702Z,1016.37
2022-11-29T07:54:14.012Z,1016.41
2022-11-29T07:55:18.300Z,1016.41
2022-11-29T07:56:14.733Z,1016.36
2022-11-29T07:57:14.421Z,1016.36
2022-11-29T07:58:13.688Z,1016.36
2022-11-29T07:59:13.053Z,1016.35
2022-11-29T08:00:14.240Z,1016.42
2022-11-29T08:01:13.817Z,1016.42
2022-11-29T08:02:32.276Z,1016.41
2022-11-29T08:03:13.651Z,1016.39
2022-11-29T08:04:14.484Z,1016.40
2022-11-29T08:05:12.947Z,1016.37
2022-11-29T08:06:12.716Z,1016.43
2022-11-29T08:07:14.475Z,1016.46
2022-11-29T08:08:14.287Z,1016.44
2022-11-29T08:09:14.631Z,1016.44
2022-11-29T08:10:14.427Z,1016.48
2022-11-29T08:11:12.921Z,1016.51
2022-11-29T08:12:33.076Z,1016.53
2022-11-29T08:13:13.288Z,1016.54
2022-11-29T08:14:14.090Z,1016.50
2022-11-29T08:15:13.608Z,1016.56
2022-11-29T08:16:14.280Z,1016.53
2022-11-29T08:17:14.508Z,1016.52
2022-11-29T08:18:14.295Z,1016.54
2022-11-29T08:19:13.248Z,1016.54
2022-11-29T08:20:14.358Z,1016.56
2022-11-29T08:21:14.214Z,1016.53
2022-11-29T08:22:32.545Z,1016.55
2022-11-29T08:23:14.239Z,1016.55
2022-11-29T08:24:13.261Z,1016.57
2022-11-29T08:25:13.259Z,1016.58
2022-11-29T08:26:14.257Z,1016.58
2022-11-29T08:27:14.062Z,1016.62
2022-11-29T08:28:14.331Z,1016.61
2022-11-29T08:29:14.143Z,1016.64
2022-11-29T08:30:13.935Z,1016.65
2022-11-29T08:31:13.324Z,1016.66
2022-11-29T08:32:32.620Z,1016.66
2022-11-29T08:33:13.860Z,1016.69
2022-11-29T08:34:14.134Z,1016.68
2022-11-29T08:35:13.422Z,1016.70
2022-11-29T08:36:13.442Z,1016.70
2022-11-29T08:37:13.269Z,1016.72
2022-11-29T08:38:13.813Z,1016.72
2022-11-29T08:39:13.696Z,1016.72
2022-11-29T08:40:14.032Z,1016.72
2022-11-29T08:41:13.329Z,1016.71
2022-11-29T08:42:33.270Z,1016.72
2022-11-29T08:43:12.386Z,1016.71
2022-11-29T08:44:12.615Z,1016.72
2022-11-29T08:45:12.377Z,1016.74
2022-11-29T08:46:18.265Z,1016.76
2022-11-29T08:47:13.405Z,1016.79
2022-11-29T08:48:12.663Z,1016.74
2022-11-29T08:49:12.398Z,1016.77
2022-11-29T08:50:12.622Z,1016.79
2022-11-29T08:51:12.383Z,1016.81
2022-11-29T08:52:33.635Z,1016.81
2022-11-29T08:53:12.409Z,1016.78
2022-11-29T08:54:12.647Z,1016.78
2022-11-29T08:55:12.398Z,1016.77
2022-11-29T08:56:59.705Z,1016.76
2022-11-29T08:58:13.340Z,1016.77
2022-11-29T08:59:12.096Z,1016.80
2022-11-29T09:00:13.055Z,1016.79
2022-11-29T09:01:12.141Z,1016.80
2022-11-29T09:02:33.854Z,1016.82
2022-11-29T09:03:12.140Z,1016.85
2022-11-29T09:04:12.374Z,1016.86
2022-11-29T09:05:12.123Z,1016.86
2022-11-29T09:06:12.908Z,1016.84
2022-11-29T09:07:12.118Z,1016.88
2022-11-29T09:08:12.356Z,1016.88
2022-11-29T09:09:12.120Z,1016.90
2022-11-29T09:10:12.352Z,1016.86
2022-11-29T09:11:12.123Z,1016.89
2022-11-29T09:12:32.804Z,1016.91
2022-11-29T09:13:12.126Z,1016.90
2022-11-29T09:14:12.455Z,1016.91
2022-11-29T09:15:12.131Z,1016.89
2022-11-29T09:16:12.423Z,1016.90
2022-11-29T09:17:12.175Z,1016.94
2022-11-29T09:18:12.787Z,1016.90
2022-11-29T09:19:12.412Z,1016.94
2022-11-29T09:20:11.967Z,1016.88
2022-11-29T09:21:12.200Z,1016.96
2022-11-29T09:22:33.402Z,1016.99
2022-11-29T09:23:12.211Z,1016.99
2022-11-29T09:24:11.937Z,1016.96
2022-11-29T09:25:12.195Z,1016.96
2022-11-29T09:26:11.939Z,1016.95
2022-11-29T09:27:12.188Z,1017.03
2022-11-29T09:28:11.921Z,1017.00
2022-11-29T09:29:12.492Z,1016.99
2022-11-29T09:30:11.908Z,1016.97
2022-11-29T09:31:12.180Z,1017.02
2022-11-29T09:32:33.380Z,1016.99
2022-11-29T09:33:12.177Z,1016.98
2022-11-29T09:34:11.913Z,1017.02
2022-11-29T09:35:12.161Z,1017.04
2022-11-29T09:36:11.926Z,1017.01
2022-11-29T09:37:11.709Z,1017.06
2022-11-29T09:38:11.922Z,1017.06
2022-11-29T09:39:11.680Z,1017.12
2022-11-29T09:40:11.939Z,1017.11
2022-11-29T09:41:11.723Z,1017.11
2022-11-29T09:42:33.422Z,1017.11
2022-11-29T09:43:11.743Z,1017.11
2022-11-29T09:44:11.962Z,1017.11
2022-11-29T09:45:11.699Z,1017.13
2022-11-29T09:46:12.006Z,1017.08
2022-11-29T09:47:11.735Z,1017.14
2022-11-29T09:48:11.975Z,1017.15
2022-11-29T09:49:11.703Z,1017.21
2022-11-29T09:50:11.979Z,1017.15
2022-11-29T09:51:11.731Z,1017.12
2022-11-29T09:52:33.437Z,1017.17
2022-11-29T09:53:11.751Z,1017.16
2022-11-29T09:54:12.924Z,1017.17
2022-11-29T09:55:11.723Z,1017.18
2022-11-29T09:56:11.498Z,1017.22
2022-11-29T09:57:11.780Z,1017.18
2022-11-29T09:58:11.517Z,1017.22
2022-11-29T09:59:11.783Z,1017.22
2022-11-29T10:00:11.506Z,1017.18
2022-11-29T10:01:11.805Z,1017.23
2022-11-29T10:02:32.245Z,1017.20
2022-11-29T10:03:11.783Z,1017.22
2022-11-29T10:04:11.524Z,1017.24
2022-11-29T10:05:11.765Z,1017.22
2022-11-29T10:06:11.508Z,1017.21
2022-11-29T10:07:11.741Z,1017.25
2022-11-29T10:08:11.511Z,1017.27
2022-11-29T10:09:11.771Z,1017.28
2022-11-29T10:10:11.502Z,1017.26
2022-11-29T10:11:11.773Z,1017.25
2022-11-29T10:12:32.998Z,1017.25
2022-11-29T10:13:11.978Z,1017.27
2022-11-29T10:14:11.556Z,1017.26
2022-11-29T10:15:11.301Z,1017.27
2022-11-29T10:16:11.626Z,1017.24
2022-11-29T10:17:11.302Z,1017.24
2022-11-29T10:18:11.574Z,1017.28
2022-11-29T10:19:11.317Z,1017.29
2022-11-29T10:20:11.562Z,1017.27
2022-11-29T10:21:11.315Z,1017.26
2022-11-29T10:22:31.590Z,1017.27
2022-11-29T10:23:11.322Z,1017.32
2022-11-29T10:24:11.596Z,1017.27
2022-11-29T10:25:11.364Z,1017.25
2022-11-29T10:26:11.601Z,1017.21
2022-11-29T10:27:11.391Z,1017.27
2022-11-29T10:28:11.637Z,1017.26
2022-11-29T10:29:11.368Z,1017.25
2022-11-29T10:30:11.130Z,1017.28
2022-11-29T10:31:11.473Z,1017.25
2022-11-29T10:32:32.336Z,1017.22
2022-11-29T10:33:11.369Z,1017.23
2022-11-29T10:34:11.135Z,1017.19
2022-11-29T10:35:11.368Z,1017.26
2022-11-29T10:36:11.120Z,1017.23
2022-11-29T10:37:11.352Z,1017.24
2022-11-29T10:39:14.584Z,1017.24
2022-11-29T10:40:11.285Z,1017.24
2022-11-29T10:41:11.032Z,1017.21
2022-11-29T10:42:32.755Z,1017.18
2022-11-29T10:43:11.034Z,1017.20
2022-11-29T10:44:11.283Z,1017.20
2022-11-29T10:45:11.015Z,1017.21
2022-11-29T10:46:11.295Z,1017.22
2022-11-29T10:47:11.295Z,1017.22
2022-11-29T10:48:11.257Z,1017.24
2022-11-29T10:49:10.983Z,1017.28
2022-11-29T10:50:11.252Z,1017.23
2022-11-29T10:51:10.987Z,1017.27
2022-11-29T10:52:31.273Z,1017.25
2022-11-29T10:53:11.091Z,1017.23
2022-11-29T10:54:11.241Z,1017.30
2022-11-29T10:55:10.991Z,1017.32
2022-11-29T10:56:11.243Z,1017.33
2022-11-29T10:57:11.925Z,1017.35
2022-11-29T10:58:11.256Z,1017.35
2022-11-29T10:59:11.098Z,1017.28
2022-11-29T11:00:11.236Z,1017.28
2022-11-29T11:01:11.159Z,1017.27
2022-11-29T11:02:31.284Z,1017.32
2022-11-29T11:03:10.976Z,1017.30
2022-11-29T11:04:11.258Z,1017.27
2022-11-29T11:05:11.032Z,1017.31
2022-11-29T11:06:11.260Z,1017.26
2022-11-29T11:07:11.020Z,1017.28
2022-11-29T11:08:10.793Z,1017.30
2022-11-29T11:09:11.031Z,1017.30
2022-11-29T11:10:10.778Z,1017.30
2022-11-29T11:11:11.028Z,1017.29
2022-11-29T11:12:30.800Z,1017.25
2022-11-29T11:13:11.035Z,1017.32
2022-11-29T11:14:10.792Z,1017.32
2022-11-29T11:15:11.037Z,1017.33
2022-11-29T11:16:10.802Z,1017.28
2022-11-29T11:17:11.126Z,1017.26
2022-11-29T11:18:10.800Z,1017.27
2022-11-29T11:19:11.043Z,1017.31
2022-11-29T11:20:10.805Z,1017.28
2022-11-29T11:21:11.043Z,1017.34
2022-11-29T11:22:30.816Z,1017.30
2022-11-29T11:23:11.041Z,1017.30
2022-11-29T11:24:10.800Z,1017.31
2022-11-29T11:25:11.036Z,1017.33
2022-11-29T11:26:10.804Z,1017.32
2022-11-29T11:27:10.521Z,1017.34
2022-11-29T11:28:10.783Z,1017.34
2022-11-29T11:29:10.535Z,1017.33
2022-11-29T11:30:10.787Z,1017.36
2022-11-29T11:31:10.589Z,1017.35
2022-11-29T11:32:30.857Z,1017.40
2022-11-29T11:33:10.587Z,1017.38
2022-11-29T11:34:10.847Z,1017.40
2022-11-29T11:35:15.546Z,1017.45
2022-11-29T11:36:11.876Z,1017.44
2022-11-29T11:37:10.627Z,1017.46
2022-11-29T11:38:10.895Z,1017.48
2022-11-29T11:39:10.625Z,1017.50
2022-11-29T11:40:10.947Z,1017.47
2022-11-29T11:41:10.635Z,1017.52
2022-11-29T11:42:30.911Z,1017.50
2022-11-29T11:43:10.626Z,1017.52
2022-11-29T11:44:15.293Z,1017.50
2022-11-29T11:45:11.657Z,1017.52
2022-11-29T11:46:15.168Z,1017.51
2022-11-29T11:47:11.656Z,1017.53
2022-11-29T11:48:10.406Z,1017.52
2022-11-29T11:49:10.654Z,1017.53
2022-11-29T11:50:10.419Z,1017.56
2022-11-29T11:51:10.640Z,1017.58
2022-11-29T11:52:30.423Z,1017.58
2022-11-29T11:53:10.647Z,1017.58
2022-11-29T11:54:10.415Z,1017.58
2022-11-29T11:55:10.652Z,1017.61
2022-11-29T11:56:10.401Z,1017.61
2022-11-29T11:57:10.675Z,1017.64
2022-11-29T11:58:10.953Z,1017.61
2022-11-29T11:59:10.631Z,1017.66
2022-11-29T12:00:10.400Z,1017.67
2022-11-29T12:01:10.634Z,1017.70
2022-11-29T12:02:30.541Z,1017.71
2022-11-29T12:03:10.700Z,1017.68
2022-11-29T12:04:10.399Z,1017.69
2022-11-29T12:05:10.150Z,1017.72
2022-11-29T12:06:10.397Z,1017.70
2022-11-29T12:07:10.139Z,1017.73
2022-11-29T12:08:10.404Z,1017.74